createdAt,value
2019-02-24T00:00:04.255Z,29.59
2019-02-24T00:02:33.401Z,29.42
2019-02-24T00:05:02.467Z,29.21
2019-02-24T00:07:31.555Z,29.04
2019-02-24T00:10:00.623Z,29.01
2019-02-24T00:12:29.740Z,28.90
2019-02-24T00:14:58.825Z,28.45
2019-02-24T00:17:28.024Z,28.58
2019-02-24T00:19:57.074Z,28.70
2019-02-24T00:22:26.176Z,28.30
2019-02-24T00:24:55.287Z,28.40
2019-02-24T00:27:24.434Z,28.15
2019-02-24T00:29:53.483Z,28.10
2019-02-24T00:32:22.577Z,28.11
2019-02-24T00:34:51.658Z,27.73
2019-02-24T00:37:20.746Z,27.18
2019-02-24T00:39:49.971Z,27.30
2019-02-24T00:42:19.105Z,27.25
2019-02-24T00:44:48.181Z,27.20
2019-02-24T00:47:17.358Z,27.01
2019-02-24T00:49:46.448Z,26.91
2019-02-24T00:52:15.506Z,26.82
2019-02-24T00:54:44.579Z,26.54
2019-02-24T00:57:13.706Z,26.57
2019-02-24T00:59:42.802Z,26.42
2019-02-24T01:02:11.917Z,26.71
2019-02-24T01:04:40.972Z,26.65
2019-02-24T01:07:10.029Z,26.50
2019-02-24T01:09:39.506Z,26.58
2019-02-24T01:12:08.552Z,26.44
2019-02-24T01:14:37.654Z,26.49
2019-02-24T01:17:06.718Z,26.23
2019-02-24T01:19:35.791Z,26.05
2019-02-24T01:22:04.895Z,26.17
2019-02-24T01:24:33.939Z,26.16
2019-02-24T01:27:03.044Z,26.21
2019-02-24T01:29:32.114Z,26.02
2019-02-24T01:32:01.179Z,26.24
2019-02-24T01:34:30.275Z,26.13
2019-02-24T01:36:59.350Z,26.07
2019-02-24T01:39:28.399Z,26.10
2019-02-24T01:41:57.457Z,26.14
2019-02-24T01:44:26.582Z,25.80
2019-02-24T01:46:55.644Z,25.60
2019-02-24T01:49:24.717Z,25.41
2019-02-24T01:51:53.787Z,25.45
2019-02-24T01:54:22.841Z,25.42
2019-02-24T01:56:51.869Z,25.33
2019-02-24T01:59:20.937Z,25.27
2019-02-24T02:01:49.978Z,25.17
2019-02-24T02:04:19.028Z,25.28
2019-02-24T02:06:48.097Z,25.21
2019-02-24T02:09:17.248Z,25.35
2019-02-24T02:11:46.309Z,25.10
2019-02-24T02:14:15.364Z,25.17
2019-02-24T02:16:44.418Z,25.28
2019-02-24T02:19:13.454Z,25.08
2019-02-24T02:21:42.500Z,25.07
2019-02-24T02:24:11.582Z,25.10
2019-02-24T02:26:40.631Z,24.85
2019-02-24T02:29:09.709Z,24.89
2019-02-24T02:31:38.761Z,24.74
2019-02-24T02:34:07.811Z,24.71
2019-02-24T02:36:36.876Z,24.75
2019-02-24T02:39:06.013Z,24.79
2019-02-24T02:41:35.060Z,24.61
2019-02-24T02:44:04.171Z,24.53
2019-02-24T02:46:33.225Z,24.71
2019-02-24T02:49:04.448Z,24.58
2019-02-24T02:51:33.112Z,24.66
2019-02-24T02:54:02.244Z,24.67
2019-02-24T02:56:31.261Z,24.39
2019-02-24T02:59:00.383Z,24.37
2019-02-24T03:01:29.455Z,24.60
2019-02-24T03:03:58.547Z,24.86
2019-02-24T03:06:41.412Z,24.64
2019-02-24T03:09:12.254Z,24.92
2019-02-24T03:11:41.281Z,25.00
2019-02-24T03:14:10.393Z,25.15
2019-02-24T03:16:39.468Z,25.19
2019-02-24T03:19:08.572Z,25.32
2019-02-24T03:21:37.691Z,24.84
2019-02-24T03:24:06.814Z,25.16
2019-02-24T03:26:35.925Z,25.43
2019-02-24T03:29:05.030Z,25.68
2019-02-24T03:31:34.156Z,24.75
2019-02-24T03:34:03.265Z,25.03
2019-02-24T03:36:32.329Z,24.78
2019-02-24T03:39:01.427Z,24.83
2019-02-24T03:41:30.560Z,24.67
2019-02-24T03:43:59.711Z,24.92
2019-02-24T03:46:28.781Z,24.47
2019-02-24T03:48:57.963Z,24.92
2019-02-24T03:51:27.019Z,24.88
2019-02-24T03:53:56.105Z,24.92
2019-02-24T03:56:25.203Z,25.15
2019-02-24T03:58:54.358Z,25.38
2019-02-24T04:01:23.404Z,25.24
2019-02-24T04:03:52.548Z,25.58
2019-02-24T04:06:21.612Z,25.52
2019-02-24T04:08:50.693Z,25.12
2019-02-24T04:11:19.797Z,25.02
2019-02-24T04:13:48.947Z,25.05
2019-02-24T04:16:18.038Z,25.21
2019-02-24T04:18:47.084Z,25.25
2019-02-24T04:21:16.137Z,25.34
2019-02-24T04:23:45.279Z,25.41
2019-02-24T04:26:14.390Z,25.45
2019-02-24T04:28:43.490Z,25.47
2019-02-24T04:31:12.532Z,25.26
2019-02-24T04:33:41.604Z,25.54
2019-02-24T04:36:10.775Z,25.25
2019-02-24T04:38:39.841Z,25.23
2019-02-24T04:41:08.976Z,25.09
2019-02-24T04:43:38.108Z,25.11
2019-02-24T04:46:07.210Z,25.34
2019-02-24T04:48:36.457Z,25.48
2019-02-24T04:51:05.526Z,25.88
2019-02-24T04:53:34.618Z,26.16
2019-02-24T04:56:03.736Z,26.11
2019-02-24T04:58:32.863Z,25.84
2019-02-24T05:01:01.952Z,25.44
2019-02-24T05:03:31.036Z,26.22
2019-02-24T05:06:00.099Z,25.57
2019-02-24T05:08:29.247Z,25.58
2019-02-24T05:10:58.373Z,25.83
2019-02-24T05:13:27.428Z,26.00
2019-02-24T05:15:56.551Z,26.45
2019-02-24T05:18:25.639Z,26.14
2019-02-24T05:20:54.797Z,27.07
2019-02-24T05:23:23.907Z,27.26
2019-02-24T05:25:52.989Z,27.22
2019-02-24T05:28:22.073Z,27.33
2019-02-24T05:30:51.201Z,27.72
2019-02-24T05:33:20.299Z,27.91
2019-02-24T05:35:49.568Z,27.82
2019-02-24T05:38:18.694Z,28.27
2019-02-24T05:40:47.837Z,27.76
2019-02-24T05:43:16.974Z,28.28
2019-02-24T05:45:46.063Z,28.38
2019-02-24T05:48:15.095Z,28.47
2019-02-24T05:50:44.260Z,28.95
2019-02-24T05:53:13.331Z,28.19
2019-02-24T05:55:42.463Z,28.59
2019-02-24T05:58:11.523Z,28.87
2019-02-24T06:00:40.662Z,29.10
2019-02-24T06:03:09.788Z,29.28
2019-02-24T06:05:38.942Z,29.29
2019-02-24T06:08:07.991Z,29.32
2019-02-24T06:10:37.053Z,29.22
2019-02-24T06:13:06.096Z,29.18
2019-02-24T06:15:35.196Z,29.57
2019-02-24T06:18:04.246Z,29.38
2019-02-24T06:20:33.419Z,29.44
2019-02-24T06:23:02.607Z,29.65
2019-02-24T06:25:31.798Z,30.15
2019-02-24T06:28:00.924Z,30.16
2019-02-24T06:30:30.041Z,30.18
2019-02-24T06:32:59.179Z,30.10
2019-02-24T06:35:28.333Z,30.27
2019-02-24T06:37:57.462Z,30.44
2019-02-24T06:40:26.680Z,30.57
2019-02-24T06:42:55.765Z,30.52
2019-02-24T06:45:24.905Z,30.45
2019-02-24T06:47:54.134Z,30.46
2019-02-24T06:50:23.322Z,30.34
2019-02-24T06:52:52.400Z,30.64
2019-02-24T06:55:21.540Z,30.65
2019-02-24T06:57:50.623Z,30.65
2019-02-24T07:00:19.691Z,30.50
2019-02-24T07:02:48.826Z,30.63
2019-02-24T07:05:17.925Z,30.68
2019-02-24T07:07:47.055Z,30.62
2019-02-24T07:10:16.114Z,30.58
2019-02-24T07:12:45.257Z,30.71
2019-02-24T07:15:14.370Z,30.46
2019-02-24T07:17:43.497Z,29.44
2019-02-24T07:20:12.689Z,28.64
2019-02-24T07:22:41.853Z,28.07
2019-02-24T07:25:10.991Z,27.47
2019-02-24T07:27:40.144Z,26.38
2019-02-24T07:30:09.552Z,25.81
2019-02-24T07:32:38.678Z,25.02
2019-02-24T07:35:07.839Z,24.54
2019-02-24T07:37:36.979Z,23.92
2019-02-24T07:40:06.089Z,23.57
2019-02-24T07:42:35.208Z,22.03
2019-02-24T07:45:04.385Z,21.21
2019-02-24T07:47:33.454Z,20.62
2019-02-24T07:50:02.534Z,19.14
2019-02-24T07:52:31.626Z,19.33
2019-02-24T07:55:00.699Z,19.28
2019-02-24T07:57:29.818Z,18.79
2019-02-24T07:59:58.923Z,18.26
2019-02-24T08:02:27.987Z,17.84
2019-02-24T08:04:57.075Z,17.60
2019-02-24T08:07:26.180Z,17.02
2019-02-24T08:09:55.314Z,16.48
2019-02-24T08:12:24.384Z,16.12
2019-02-24T08:14:53.549Z,15.87
2019-02-24T08:17:22.620Z,15.28
2019-02-24T08:19:52.020Z,15.00
2019-02-24T08:22:21.133Z,14.73
2019-02-24T08:24:50.243Z,14.28
2019-02-24T08:27:19.369Z,13.44
2019-02-24T08:29:48.548Z,11.87
2019-02-24T08:32:17.674Z,10.45
2019-02-24T08:34:46.842Z,10.43
2019-02-24T08:37:15.938Z,10.44
2019-02-24T08:39:45.124Z,10.37
2019-02-24T08:42:14.204Z,9.78
2019-02-24T08:44:43.312Z,9.29
2019-02-24T08:47:12.413Z,8.63
2019-02-24T08:49:41.533Z,8.63
2019-02-24T08:52:10.641Z,8.09
2019-02-24T08:54:39.705Z,7.70
2019-02-24T08:57:08.831Z,7.07
2019-02-24T08:59:38.398Z,7.07
2019-02-24T09:02:07.602Z,6.98
2019-02-24T09:04:36.722Z,6.88
2019-02-24T09:07:05.921Z,6.92
2019-02-24T09:09:35.010Z,6.89
2019-02-24T09:12:04.114Z,6.31
2019-02-24T09:14:33.179Z,6.00
2019-02-24T09:17:02.349Z,5.83
2019-02-24T09:19:31.457Z,5.73
2019-02-24T09:22:00.641Z,5.45
2019-02-24T09:24:30.127Z,5.29
2019-02-24T09:26:59.485Z,4.98
2019-02-24T09:29:28.841Z,4.99
2019-02-24T09:31:58.000Z,4.95
2019-02-24T09:34:27.074Z,4.90
2019-02-24T09:36:56.514Z,4.48
2019-02-24T09:39:25.881Z,4.42
2019-02-24T09:41:54.986Z,4.19
2019-02-24T09:44:24.039Z,4.13
2019-02-24T09:46:53.134Z,4.06
2019-02-24T09:49:22.178Z,3.99
2019-02-24T09:51:52.365Z,3.82
2019-02-24T09:54:21.526Z,3.66
2019-02-24T09:56:50.675Z,3.41
2019-02-24T09:59:19.759Z,3.40
2019-02-24T10:01:48.906Z,3.20
2019-02-24T10:04:17.939Z,3.09
2019-02-24T10:06:47.067Z,3.13
2019-02-24T10:09:16.117Z,3.03
2019-02-24T10:11:46.924Z,3.01
2019-02-24T10:14:16.041Z,2.90
2019-02-24T10:16:45.179Z,2.68
2019-02-24T10:19:14.248Z,2.55
2019-02-24T10:21:43.424Z,2.37
2019-02-24T10:24:12.548Z,2.46
2019-02-24T10:26:41.630Z,2.38
2019-02-24T10:29:10.697Z,2.25
2019-02-24T10:31:39.822Z,2.12
2019-02-24T10:34:09.517Z,1.96
2019-02-24T10:36:38.625Z,1.98
2019-02-24T10:39:10.375Z,1.78
2019-02-24T10:41:39.473Z,1.71
2019-02-24T10:44:08.551Z,1.57
2019-02-24T10:46:37.772Z,1.66
2019-02-24T10:49:06.882Z,1.53
2019-02-24T10:51:35.958Z,1.29
2019-02-24T10:54:05.033Z,1.22
2019-02-24T10:56:34.110Z,1.11
2019-02-24T10:59:03.250Z,1.07
2019-02-24T11:01:32.331Z,1.24
2019-02-24T11:04:01.448Z,0.91
2019-02-24T11:06:30.553Z,0.89
2019-02-24T11:08:59.667Z,0.89
2019-02-24T11:11:28.789Z,0.72
2019-02-24T11:13:57.928Z,0.65
2019-02-24T11:16:27.056Z,0.64
2019-02-24T11:18:56.175Z,0.70
2019-02-24T11:21:25.370Z,0.67
2019-02-24T11:23:54.495Z,0.64
2019-02-24T11:26:23.660Z,0.71
2019-02-24T11:28:52.896Z,0.50
2019-02-24T11:31:22.059Z,0.56
2019-02-24T11:33:51.192Z,0.53
2019-02-24T11:36:20.318Z,0.53
2019-02-24T11:38:49.552Z,0.55
2019-02-24T11:41:18.763Z,0.44
2019-02-24T11:43:48.047Z,0.51
2019-02-24T11:46:17.236Z,0.60
2019-02-24T11:48:46.477Z,0.63
2019-02-24T11:51:15.703Z,0.62
2019-02-24T11:53:44.935Z,0.63
2019-02-24T11:56:14.058Z,0.52
2019-02-24T11:58:43.229Z,0.37
2019-02-24T12:01:12.453Z,0.05
2019-02-24T12:03:41.628Z,0.02
2019-02-24T12:06:10.892Z,0.00
2019-02-24T12:08:40.058Z,0.00
2019-02-24T12:11:09.167Z,0.08
2019-02-24T12:13:38.475Z,0.14
2019-02-24T12:16:07.633Z,0.00
2019-02-24T12:18:36.824Z,0.00
2019-02-24T12:21:05.965Z,0.00
2019-02-24T12:23:35.195Z,0.08
2019-02-24T12:26:04.292Z,0.21
2019-02-24T12:28:33.919Z,0.31
2019-02-24T12:31:03.321Z,0.32
2019-02-24T12:33:32.465Z,0.31
2019-02-24T12:36:01.669Z,0.44
2019-02-24T12:38:30.855Z,0.50
2019-02-24T12:41:00.005Z,0.95
2019-02-24T12:43:29.141Z,1.22
2019-02-24T12:45:58.341Z,1.60
2019-02-24T12:48:27.560Z,1.90
2019-02-24T12:50:56.680Z,2.45
2019-02-24T12:53:27.526Z,3.01
2019-02-24T12:55:56.821Z,3.36
2019-02-24T12:58:26.091Z,3.81
2019-02-24T13:00:55.288Z,4.31
2019-02-24T13:03:24.484Z,4.59
2019-02-24T13:05:53.694Z,4.96
2019-02-24T13:08:22.890Z,5.24
2019-02-24T13:10:52.017Z,5.41
2019-02-24T13:13:21.107Z,5.55
2019-02-24T13:15:50.282Z,5.92
2019-02-24T13:18:19.538Z,6.03
2019-02-24T13:20:48.603Z,6.55
2019-02-24T13:23:17.895Z,6.41
2019-02-24T13:25:47.080Z,6.36
2019-02-24T13:28:16.221Z,6.02
2019-02-24T13:30:45.354Z,6.15
2019-02-24T13:33:14.480Z,6.09
2019-02-24T13:35:43.640Z,6.35
2019-02-24T13:38:12.762Z,6.54
2019-02-24T13:40:42.001Z,6.99
2019-02-24T13:43:11.069Z,7.22
2019-02-24T13:45:40.173Z,7.33
2019-02-24T13:48:09.853Z,7.34
2019-02-24T13:50:39.027Z,7.29
2019-02-24T13:53:08.148Z,7.44
2019-02-24T13:55:37.246Z,7.66
2019-02-24T13:58:06.427Z,7.87
2019-02-24T14:00:35.525Z,8.00
2019-02-24T14:03:04.625Z,7.78
2019-02-24T14:05:33.709Z,7.52
2019-02-24T14:08:02.888Z,7.51
2019-02-24T14:10:31.922Z,7.74
2019-02-24T14:13:01.035Z,7.83
2019-02-24T14:15:30.121Z,7.92
2019-02-24T14:17:59.241Z,8.14
2019-02-24T14:20:28.344Z,8.27
2019-02-24T14:22:57.495Z,8.05
2019-02-24T14:25:26.618Z,8.11
2019-02-24T14:27:55.755Z,8.25
2019-02-24T14:30:24.883Z,8.34
2019-02-24T14:32:53.965Z,8.22
2019-02-24T14:35:23.294Z,8.46
2019-02-24T14:37:52.480Z,8.58
2019-02-24T14:40:21.650Z,8.57
2019-02-24T14:42:50.862Z,8.71
2019-02-24T14:45:20.074Z,8.77
2019-02-24T14:47:49.231Z,8.71
2019-02-24T14:50:18.358Z,8.67
2019-02-24T14:52:47.566Z,8.83
2019-02-24T14:55:16.723Z,8.78
2019-02-24T14:57:45.845Z,8.88
2019-02-24T15:00:15.370Z,9.02
2019-02-24T15:02:44.538Z,8.88
2019-02-24T15:05:13.907Z,8.97
2019-02-24T15:07:42.989Z,8.93
2019-02-24T15:10:13.686Z,9.33
2019-02-24T15:12:42.897Z,9.30
2019-02-24T15:15:15.909Z,9.38
2019-02-24T15:17:45.059Z,9.38
2019-02-24T15:20:16.524Z,9.54
2019-02-24T15:22:45.619Z,9.64
2019-02-24T15:25:15.750Z,10.06
2019-02-24T15:27:44.912Z,10.20
2019-02-24T15:30:19.946Z,9.92
2019-02-24T15:32:51.625Z,9.85
2019-02-24T15:35:19.991Z,9.82
2019-02-24T15:37:49.109Z,9.89
2019-02-24T15:40:18.346Z,9.82
2019-02-24T15:42:47.538Z,9.88
2019-02-24T15:45:16.663Z,9.89
2019-02-24T15:47:45.828Z,9.94
2019-02-24T15:50:14.957Z,10.04
2019-02-24T15:52:44.138Z,10.14
2019-02-24T15:55:13.371Z,9.92
2019-02-24T15:57:42.535Z,10.01
2019-02-24T16:00:13.071Z,10.12
2019-02-24T16:02:42.244Z,10.05
2019-02-24T16:05:11.478Z,10.20
2019-02-24T16:07:40.564Z,10.41
2019-02-24T16:10:12.030Z,10.48
2019-02-24T16:12:41.207Z,10.57
2019-02-24T16:15:11.759Z,10.95
2019-02-24T16:17:40.905Z,11.01
2019-02-24T16:20:13.442Z,11.16
2019-02-24T16:22:42.504Z,11.44
2019-02-24T16:25:11.651Z,12.14
2019-02-24T16:27:40.915Z,12.54
2019-02-24T16:30:11.336Z,12.88
2019-02-24T16:32:40.480Z,13.23
2019-02-24T16:35:11.090Z,13.57
2019-02-24T16:37:40.256Z,13.65
2019-02-24T16:40:12.227Z,14.24
2019-02-24T16:42:42.548Z,14.49
2019-02-24T16:45:12.226Z,14.81
2019-02-24T16:47:41.344Z,14.93
2019-02-24T16:50:13.961Z,15.23
2019-02-24T16:52:43.125Z,15.37
2019-02-24T16:55:12.819Z,15.61
2019-02-24T16:57:42.142Z,15.76
2019-02-24T17:00:14.990Z,15.96
2019-02-24T17:02:44.247Z,16.25
2019-02-24T17:05:13.391Z,16.51
2019-02-24T17:07:42.545Z,16.96
2019-02-24T17:10:13.130Z,17.27
2019-02-24T17:12:42.288Z,17.29
2019-02-24T17:15:11.528Z,18.01
2019-02-24T17:17:40.694Z,17.66
2019-02-24T17:20:13.579Z,17.91
2019-02-24T17:22:42.888Z,18.29
2019-02-24T17:25:12.143Z,18.43
2019-02-24T17:27:41.302Z,18.80
2019-02-24T17:30:12.517Z,19.26
2019-02-24T17:32:41.753Z,19.22
2019-02-24T17:35:10.876Z,19.48
2019-02-24T17:37:39.981Z,20.04
2019-02-24T17:40:10.678Z,19.95
2019-02-24T17:42:40.626Z,20.07
2019-02-24T17:45:11.072Z,20.15
2019-02-24T17:47:40.184Z,20.07
2019-02-24T17:50:10.817Z,20.15
2019-02-24T17:52:39.982Z,20.27
2019-02-24T17:55:10.362Z,20.41
2019-02-24T17:57:39.602Z,20.56
2019-02-24T18:00:13.000Z,20.80
2019-02-24T18:02:42.215Z,21.04
2019-02-24T18:05:11.407Z,21.12
2019-02-24T18:07:40.491Z,21.31
2019-02-24T18:10:09.595Z,21.58
2019-02-24T18:12:38.711Z,21.89
2019-02-24T18:15:09.422Z,21.96
2019-02-24T18:17:38.595Z,22.09
2019-02-24T18:20:09.144Z,22.36
2019-02-24T18:22:38.221Z,22.62
2019-02-24T18:25:09.250Z,22.77
2019-02-24T18:27:38.359Z,22.91
2019-02-24T18:30:10.712Z,23.08
2019-02-24T18:32:39.816Z,23.20
2019-02-24T18:35:08.927Z,23.50
2019-02-24T18:37:38.069Z,23.71
2019-02-24T18:40:07.636Z,23.76
2019-02-24T18:42:36.819Z,23.75
2019-02-24T18:45:06.006Z,23.95
2019-02-24T18:47:35.190Z,23.93
2019-02-24T18:50:04.386Z,23.96
2019-02-24T18:52:33.531Z,24.12
2019-02-24T18:55:02.601Z,24.60
2019-02-24T18:57:31.811Z,24.76
2019-02-24T19:00:00.965Z,25.00
2019-02-24T19:02:30.078Z,25.13
2019-02-24T19:04:59.228Z,26.16
2019-02-24T19:07:28.373Z,26.18
2019-02-24T19:09:57.483Z,26.52
2019-02-24T19:12:26.679Z,26.12
2019-02-24T19:14:55.766Z,26.01
2019-02-24T19:17:24.909Z,25.85
2019-02-24T19:19:54.000Z,25.89
2019-02-24T19:22:23.177Z,25.90
2019-02-24T19:24:52.298Z,25.89
2019-02-24T19:27:21.444Z,26.34
2019-02-24T19:29:50.583Z,26.39
2019-02-24T19:32:19.718Z,26.26
2019-02-24T19:34:48.817Z,26.30
2019-02-24T19:37:17.983Z,26.28
2019-02-24T19:39:47.132Z,26.33
2019-02-24T19:42:16.271Z,26.50
2019-02-24T19:44:45.422Z,26.76
2019-02-24T19:47:14.547Z,26.79
2019-02-24T19:49:43.638Z,26.98
2019-02-24T19:52:12.791Z,27.09
2019-02-24T19:54:41.983Z,26.73
2019-02-24T19:57:11.129Z,26.80
2019-02-24T19:59:40.306Z,27.03
2019-02-24T20:02:09.442Z,27.08
2019-02-24T20:04:38.614Z,27.10
2019-02-24T20:07:07.681Z,26.89
2019-02-24T20:09:43.665Z,26.69
2019-02-24T20:12:12.796Z,26.85
2019-02-24T20:14:43.685Z,27.02
2019-02-24T20:17:12.798Z,27.19
2019-02-24T20:19:42.032Z,27.27
2019-02-24T20:22:11.088Z,27.49
2019-02-24T20:24:40.201Z,27.60
2019-02-24T20:27:09.301Z,28.09
2019-02-24T20:29:38.406Z,28.10
2019-02-24T20:32:07.487Z,28.01
2019-02-24T20:34:36.577Z,28.16
2019-02-24T20:37:05.709Z,28.41
2019-02-24T20:39:34.776Z,28.52
2019-02-24T20:42:03.872Z,28.81
2019-02-24T20:44:33.065Z,28.83
2019-02-24T20:47:02.139Z,28.88
2019-02-24T20:49:31.313Z,28.80
2019-02-24T20:52:00.396Z,28.74
2019-02-24T20:54:29.551Z,29.03
2019-02-24T20:56:58.654Z,29.31
2019-02-24T20:59:27.860Z,29.50
2019-02-24T21:01:56.954Z,29.58
2019-02-24T21:04:26.075Z,29.64
2019-02-24T21:06:55.143Z,30.01
2019-02-24T21:09:24.243Z,30.46
2019-02-24T21:11:53.359Z,30.68
2019-02-24T21:14:22.484Z,30.66
2019-02-24T21:16:51.594Z,30.58
2019-02-24T21:19:20.663Z,30.83
2019-02-24T21:21:49.788Z,31.06
2019-02-24T21:24:18.874Z,31.23
2019-02-24T21:26:47.955Z,31.23
2019-02-24T21:29:17.083Z,30.98
2019-02-24T21:31:46.132Z,31.19
2019-02-24T21:34:15.297Z,31.53
2019-02-24T21:36:44.376Z,31.70
2019-02-24T21:39:13.450Z,31.77
2019-02-24T21:41:42.486Z,31.88
2019-02-24T21:44:11.634Z,31.84
2019-02-24T21:46:40.678Z,31.83
2019-02-24T21:49:09.775Z,31.79
2019-02-24T21:51:38.827Z,31.96
2019-02-24T21:54:07.903Z,32.08
2019-02-24T21:56:37.014Z,32.15
2019-02-24T21:59:06.118Z,32.19
2019-02-24T22:01:35.182Z,32.39
2019-02-24T22:04:04.294Z,32.29
2019-02-24T22:06:33.353Z,32.56
2019-02-24T22:09:02.494Z,32.47
2019-02-24T22:11:31.558Z,32.57
2019-02-24T22:14:00.664Z,32.87
2019-02-24T22:16:29.732Z,32.73
2019-02-24T22:18:58.813Z,32.80
2019-02-24T22:21:27.911Z,32.84
2019-02-24T22:23:56.959Z,33.08
2019-02-24T22:26:26.023Z,33.26
2019-02-24T22:28:55.074Z,33.27
2019-02-24T22:31:24.187Z,33.65
2019-02-24T22:33:53.243Z,33.90
2019-02-24T22:36:22.315Z,34.12
2019-02-24T22:38:51.411Z,33.98
2019-02-24T22:41:20.529Z,34.07
2019-02-24T22:43:49.563Z,34.09
2019-02-24T22:46:18.646Z,34.08
2019-02-24T22:48:47.698Z,34.10
2019-02-24T22:51:17.628Z,34.22
2019-02-24T22:53:46.713Z,34.26
2019-02-24T22:56:15.819Z,34.39
2019-02-24T22:58:44.859Z,34.49
2019-02-24T23:01:19.892Z,34.74
2019-02-24T23:03:49.277Z,34.79
2019-02-24T23:06:18.393Z,34.89
2019-02-24T23:08:47.478Z,34.89
2019-02-24T23:11:16.746Z,34.88
2019-02-24T23:13:45.925Z,34.91
2019-02-24T23:16:14.958Z,34.95
2019-02-24T23:18:44.048Z,35.01
2019-02-24T23:21:13.215Z,34.99
2019-02-24T23:23:42.437Z,35.03
2019-02-24T23:26:11.682Z,35.15
2019-02-24T23:28:40.910Z,35.08
2019-02-24T23:31:10.089Z,35.06
2019-02-24T23:33:39.266Z,35.12
2019-02-24T23:36:08.544Z,35.18
2019-02-24T23:38:37.799Z,35.34
2019-02-24T23:41:07.149Z,35.44
2019-02-24T23:43:36.486Z,35.88
2019-02-24T23:46:05.717Z,35.79
2019-02-24T23:48:34.925Z,35.93
2019-02-24T23:51:04.124Z,35.83
2019-02-24T23:53:33.347Z,36.11
2019-02-24T23:56:02.596Z,35.99
2019-02-24T23:58:31.875Z,36.00
